Time;durP1;ratioP1;P1;durP2;ratioP2;P2;SDS_P1;SDS_P2;PMS_P1;PMS_P2;Temp;Humidity;BMP_temperature;BMP_pressure;BME280_temperature;BME280_humidity;BME280_pressure;Samples;Min_cycle;Max_cycle;Signal;HPM_P1;HPM_P2
2023/12/16 00:01:18;;;;;;;23.50;5.07;;;;;;;8.59;100.00;103931.19;5209227;28;20056;-73
2023/12/16 00:03:49;;;;;;;15.90;5.00;;;;;;;8.61;100.00;103937.31;5212300;28;20403;-74
2023/12/16 00:06:20;;;;;;;13.18;4.70;;;;;;;8.59;100.00;103936.56;5210798;28;20032;-73
2023/12/16 00:08:50;;;;;;;21.52;6.00;;;;;;;8.66;100.00;103940.63;5209382;28;20040;-73
2023/12/16 00:11:21;;;;;;;20.88;5.80;;;;;;;8.51;100.00;103939.59;5222413;28;20033;-74
2023/12/16 00:13:51;;;;;;;19.45;5.57;;;;;;;8.48;100.00;103937.06;5206605;28;20029;-73
2023/12/16 00:16:24;;;;;;;15.93;5.00;;;;;;;8.50;100.00;103937.88;5203914;28;20037;-73
2023/12/16 00:18:54;;;;;;;17.02;5.43;;;;;;;8.50;100.00;103943.22;5204349;28;20029;-74
2023/12/16 00:21:25;;;;;;;25.50;6.32;;;;;;;8.50;100.00;103937.88;5206510;28;20033;-73
2023/12/16 00:23:55;;;;;;;20.63;5.30;;;;;;;8.48;100.00;103937.97;5212926;28;20029;-74
2023/12/16 00:26:26;;;;;;;19.08;5.30;;;;;;;8.49;100.00;103937.00;5210209;28;20028;-74
2023/12/16 00:28:56;;;;;;;18.77;5.20;;;;;;;8.49;100.00;103939.69;5209301;28;20021;-73
2023/12/16 00:31:28;;;;;;;21.00;5.90;;;;;;;8.47;100.00;103940.69;5209347;28;20376;-73
2023/12/16 00:33:58;;;;;;;20.60;5.38;;;;;;;8.48;100.00;103935.28;5204321;28;20029;-73
2023/12/16 00:36:28;;;;;;;18.27;4.95;;;;;;;8.48;100.00;103942.41;5210197;28;20036;-74
2023/12/16 00:38:59;;;;;;;22.05;5.82;;;;;;;8.48;100.00;103934.38;5207943;28;20415;-74
2023/12/16 00:41:29;;;;;;;18.10;6.00;;;;;;;8.47;100.00;103930.00;5206590;28;22793;-74
2023/12/16 00:44:00;;;;;;;20.45;5.70;;;;;;;8.47;100.00;103930.00;5212426;28;20052;-73
2023/12/16 00:46:31;;;;;;;19.95;5.95;;;;;;;8.52;100.00;103934.16;5208015;28;20037;-74
2023/12/16 00:49:02;;;;;;;23.00;6.35;;;;;;;8.53;100.00;103935.91;5208664;28;20029;-73
2023/12/16 00:51:33;;;;;;;22.02;6.57;;;;;;;8.56;100.00;103929.53;5202494;28;20032;-73
2023/12/16 00:54:03;;;;;;;27.13;6.40;;;;;;;8.53;100.00;103921.66;5209522;28;20035;-74
2023/12/16 00:56:34;;;;;;;23.35;6.18;;;;;;;8.55;100.00;103939.38;5207308;28;20031;-74
2023/12/16 00:59:04;;;;;;;23.20;6.10;;;;;;;8.53;100.00;103930.56;5204719;28;20021;-74
2023/12/16 01:01:35;;;;;;;25.77;5.97;;;;;;;8.57;100.00;103931.25;5204894;28;20036;-74
2023/12/16 01:04:05;;;;;;;31.67;7.22;;;;;;;8.62;100.00;103931.03;5207359;28;20025;-74
2023/12/16 01:06:36;;;;;;;22.73;6.55;;;;;;;8.62;100.00;103942.59;5209776;28;20074;-74
2023/12/16 01:09:06;;;;;;;25.73;6.97;;;;;;;8.59;100.00;103937.41;5207166;28;20097;-73
2023/12/16 01:11:37;;;;;;;19.70;5.93;;;;;;;8.61;100.00;103934.66;5207677;28;20025;-74
2023/12/16 01:14:09;;;;;;;27.00;6.75;;;;;;;8.62;100.00;103939.91;5209706;28;20052;-73
2023/12/16 01:16:39;;;;;;;26.33;6.45;;;;;;;8.57;100.00;103937.47;5206631;28;20033;-73
2023/12/16 01:19:10;;;;;;;15.43;5.18;;;;;;;8.61;100.00;103942.69;5210349;28;20568;-73
2023/12/16 01:21:41;;;;;;;23.80;6.30;;;;;;;8.62;100.00;103941.72;5208820;28;20075;-73
2023/12/16 01:24:12;;;;;;;21.50;5.43;;;;;;;8.57;100.00;103933.94;5212883;28;20033;-73
2023/12/16 01:26:42;;;;;;;32.58;5.65;;;;;;;8.61;100.00;103937.31;5214184;28;20033;-73
2023/12/16 01:29:13;;;;;;;16.88;6.03;;;;;;;8.56;100.00;103938.41;5210297;28;20400;-73
2023/12/16 01:31:43;;;;;;;28.63;5.45;;;;;;;8.52;100.00;103934.16;5210463;28;20033;-74
2023/12/16 01:34:14;;;;;;;22.52;5.55;;;;;;;8.59;100.00;103937.41;5207933;28;20052;-73
2023/12/16 01:36:44;;;;;;;16.77;5.07;;;;;;;8.61;100.00;103940.00;5210665;28;20033;-73
2023/12/16 01:39:15;;;;;;;19.83;5.50;;;;;;;8.55;100.00;103933.16;5212148;28;20033;-73
2023/12/16 01:41:45;;;;;;;25.02;7.05;;;;;;;8.59;100.00;103936.56;5212450;28;20024;-73
2023/12/16 01:44:16;;;;;;;22.60;5.38;;;;;;;8.63;100.00;103943.44;5210755;28;20679;-73
2023/12/16 01:46:46;;;;;;;19.38;4.72;;;;;;;8.64;100.00;103942.53;5213127;28;20029;-73
2023/12/16 01:49:17;;;;;;;19.30;5.00;;;;;;;8.64;100.00;103940.72;5209137;28;20392;-73
2023/12/16 01:51:49;;;;;;;18.60;4.97;;;;;;;8.63;100.00;103949.66;5215654;28;20021;-73
2023/12/16 01:54:20;;;;;;;18.52;4.82;;;;;;;8.61;100.00;103935.50;5208029;28;20025;-73
2023/12/16 01:56:57;;;;;;;16.63;4.97;;;;;;;8.62;100.00;103939.06;5216365;28;20033;-73
2023/12/16 01:59:28;;;;;;;25.08;4.13;;;;;;;8.54;100.00;103937.66;5207411;28;20031;-73
2023/12/16 02:01:58;;;;;;;19.98;5.10;;;;;;;8.56;100.00;103943.78;5212956;28;20020;-73
2023/12/16 02:04:30;;;;;;;14.32;4.32;;;;;;;8.55;100.00;103941.19;5211416;28;20037;-73
2023/12/16 02:07:01;;;;;;;12.23;4.72;;;;;;;8.51;100.00;103937.78;5211550;28;20022;-73
2023/12/16 02:09:31;;;;;;;15.50;4.32;;;;;;;8.51;100.00;103937.78;5211334;28;20029;-73
2023/12/16 02:12:02;;;;;;;25.88;4.57;;;;;;;8.48;100.00;103937.06;5211051;28;20025;-73
2023/12/16 02:14:33;;;;;;;21.88;4.30;;;;;;;8.47;100.00;103933.53;5210252;28;20210;-73
2023/12/16 02:17:03;;;;;;;12.73;4.50;;;;;;;8.43;100.00;103933.75;5210783;28;20024;-73
2023/12/16 02:19:35;;;;;;;18.60;4.35;;;;;;;8.42;100.00;103938.25;5211362;28;20064;-73
2023/12/16 02:22:05;;;;;;;18.27;4.10;;;;;;;8.45;100.00;103932.75;5210010;28;20029;-73
2023/12/16 02:24:38;;;;;;;25.85;4.65;;;;;;;8.42;100.00;103940.06;5212395;28;20037;-73
2023/12/16 02:27:08;;;;;;;18.73;4.07;;;;;;;8.39;100.00;103932.22;5211795;28;20075;-72
2023/12/16 02:29:39;;;;;;;17.50;4.25;;;;;;;8.32;100.00;103936.94;5210063;28;20095;-73
2023/12/16 02:32:09;;;;;;;19.42;5.13;;;;;;;8.26;100.00;103930.09;5211850;28;20036;-73
2023/12/16 02:34:40;;;;;;;17.10;6.20;;;;;;;8.22;100.00;103927.66;5211140;28;20036;-73
2023/12/16 02:37:12;;;;;;;15.88;4.90;;;;;;;8.18;100.00;103931.41;5212558;28;20031;-73
2023/12/16 02:39:42;;;;;;;21.88;4.72;;;;;;;8.16;100.00;103933.31;5209299;28;20026;-73
2023/12/16 02:42:13;;;;;;;17.10;4.75;;;;;;;8.09;100.00;103926.53;5210519;28;20036;-73
2023/12/16 02:44:43;;;;;;;18.83;4.38;;;;;;;8.01;100.00;103925.06;5212823;28;20989;-73
2023/12/16 02:47:15;;;;;;;12.40;4.15;;;;;;;7.98;100.00;103917.22;5209650;28;20446;-73
2023/12/16 02:49:46;;;;;;;17.65;4.55;;;;;;;7.91;100.00;103920.25;5212773;28;20158;-73
2023/12/16 02:52:17;;;;;;;20.20;4.70;;;;;;;7.91;100.00;103918.44;5208694;28;20071;-73
2023/12/16 02:54:47;;;;;;;19.58;4.75;;;;;;;7.90;100.00;103924.75;5212628;28;20025;-73
2023/12/16 02:57:18;;;;;;;18.63;4.22;;;;;;;7.92;100.00;103924.66;5208876;28;20018;-72
2023/12/16 02:59:49;;;;;;;16.23;4.80;;;;;;;7.91;100.00;103922.94;5210934;28;20031;-73
2023/12/16 03:02:19;;;;;;;22.17;4.65;;;;;;;7.88;100.00;103917.72;5208997;28;20033;-73
2023/12/16 03:04:51;;;;;;;20.42;4.45;;;;;;;7.86;100.00;103909.78;5213279;28;20403;-72
2023/12/16 03:07:22;;;;;;;18.45;4.28;;;;;;;7.84;100.00;103906.34;5204005;28;20044;-73
2023/12/16 03:09:52;;;;;;;16.10;4.43;;;;;;;7.80;100.00;103902.06;5214216;28;20025;-73
2023/12/16 03:12:24;;;;;;;23.25;5.15;;;;;;;7.74;100.00;103905.91;5205439;28;20033;-73
2023/12/16 03:14:55;;;;;;;22.15;4.10;;;;;;;7.69;100.00;103915.09;5212020;28;20060;-73
2023/12/16 03:17:25;;;;;;;20.13;4.80;;;;;;;7.64;100.00;103907.28;5210127;28;20085;-73
2023/12/16 03:19:56;;;;;;;16.70;4.90;;;;;;;7.61;100.00;103903.88;5207430;28;20029;-73
2023/12/16 03:22:26;;;;;;;22.48;4.65;;;;;;;7.59;100.00;103909.31;5210420;28;20496;-73
2023/12/16 03:25:00;;;;;;;13.18;4.55;;;;;;;7.63;100.00;103910.91;5207703;28;20022;-73
2023/12/16 03:27:31;;;;;;;26.98;4.80;;;;;;;7.69;100.00;103910.59;5206750;28;20028;-73
2023/12/16 03:30:02;;;;;;;26.77;5.20;;;;;;;7.70;100.00;103914.13;5211182;28;20048;-73
2023/12/16 03:32:32;;;;;;;16.73;4.72;;;;;;;7.74;100.00;103926.41;5207475;28;20021;-72
2023/12/16 03:35:03;;;;;;;17.92;4.75;;;;;;;7.77;100.00;103924.44;5209189;28;20548;-72
2023/12/16 03:37:33;;;;;;;26.58;5.15;;;;;;;7.81;100.00;103929.66;5208657;28;20592;-73
2023/12/16 03:40:05;;;;;;;24.25;4.97;;;;;;;7.83;100.00;103935.78;5207456;28;20018;-73
2023/12/16 03:42:35;;;;;;;14.40;4.63;;;;;;;7.82;100.00;103934.91;5209147;28;20532;-73
2023/12/16 03:45:06;;;;;;;19.83;4.93;;;;;;;7.85;100.00;103931.25;5211225;28;20055;-72
2023/12/16 03:47:37;;;;;;;22.08;4.93;;;;;;;7.85;100.00;103926.78;5208626;28;20126;-72
2023/12/16 03:50:08;;;;;;;15.75;4.47;;;;;;;7.88;100.00;103931.09;5210576;28;20032;-73
2023/12/16 03:52:38;;;;;;;19.67;5.05;;;;;;;7.86;100.00;103928.50;5207441;28;20044;-73
2023/12/16 03:55:09;;;;;;;13.60;4.72;;;;;;;7.86;100.00;103933.84;5209046;28;20103;-73
2023/12/16 03:57:39;;;;;;;19.95;4.35;;;;;;;7.86;100.00;103924.97;5209920;28;20032;-73
2023/12/16 04:00:10;;;;;;;18.63;5.53;;;;;;;7.83;100.00;103938.47;5206973;28;20488;-73
2023/12/16 04:02:41;;;;;;;16.15;4.35;;;;;;;7.81;100.00;103938.53;5209916;28;20906;-73
2023/12/16 04:05:12;;;;;;;22.08;5.55;;;;;;;7.80;100.00;103944.84;5205762;28;20112;-73
2023/12/16 04:07:43;;;;;;;20.10;5.38;;;;;;;7.79;100.00;103941.28;5209318;28;20025;-73
2023/12/16 04:10:14;;;;;;;21.45;5.38;;;;;;;7.79;100.00;103945.78;5209309;28;20485;-72
2023/12/16 04:12:44;;;;;;;24.75;5.25;;;;;;;7.65;100.00;103948.22;5211500;28;20037;-73
2023/12/16 04:15:15;;;;;;;16.83;4.93;;;;;;;7.62;100.00;103945.69;5206865;28;20025;-73
2023/12/16 04:17:45;;;;;;;20.48;4.65;;;;;;;7.59;100.00;103957.41;5208290;28;20024;-73
2023/12/16 04:20:16;;;;;;;24.33;4.75;;;;;;;7.56;100.00;103956.66;5205280;28;20112;-73
2023/12/16 04:22:46;;;;;;;26.40;6.25;;;;;;;7.47;100.00;103953.47;5208497;28;20035;-72
2023/12/16 04:25:17;;;;;;;22.65;5.90;;;;;;;7.49;100.00;103948.94;5204829;28;20036;-73
2023/12/16 04:27:47;;;;;;;21.50;4.68;;;;;;;7.46;100.00;103961.56;5209344;28;20476;-73
2023/12/16 04:30:18;;;;;;;21.08;5.10;;;;;;;7.45;100.00;103955.34;5208720;28;20139;-73
2023/12/16 04:32:48;;;;;;;24.08;4.90;;;;;;;7.39;100.00;103958.31;5208053;28;20033;-73
2023/12/16 04:35:19;;;;;;;20.38;4.78;;;;;;;7.38;100.00;103953.91;5207829;28;20037;-73
2023/12/16 04:37:49;;;;;;;21.50;4.43;;;;;;;7.35;100.00;103963.84;5209319;28;20541;-73
2023/12/16 04:40:21;;;;;;;22.33;5.50;;;;;;;7.35;100.00;103962.06;5206198;28;20035;-72
2023/12/16 04:42:51;;;;;;;17.58;4.80;;;;;;;7.34;100.00;103954.97;5205401;28;20433;-72
2023/12/16 04:45:22;;;;;;;17.85;4.78;;;;;;;7.27;100.00;103957.03;5203688;28;20039;-72
2023/12/16 04:47:53;;;;;;;19.25;4.65;;;;;;;7.29;100.00;103959.66;5208296;28;20017;-72
2023/12/16 04:50:23;;;;;;;26.42;5.38;;;;;;;7.24;100.00;103953.66;5206237;28;20026;-72
2023/12/16 04:52:54;;;;;;;19.45;5.13;;;;;;;7.26;100.00;103949.97;5229782;28;20021;-72
2023/12/16 04:55:24;;;;;;;21.08;5.07;;;;;;;7.21;100.00;103941.31;5210745;28;20021;-72
2023/12/16 04:57:55;;;;;;;16.20;5.38;;;;;;;7.21;100.00;103951.13;5218818;28;20017;-72
2023/12/16 05:00:25;;;;;;;19.73;4.90;;;;;;;7.18;100.00;103941.47;5211139;28;20373;-72
2023/12/16 05:02:56;;;;;;;21.73;5.03;;;;;;;7.41;100.00;103937.72;5217775;28;20025;-72
2023/12/16 05:05:27;;;;;;;18.58;3.95;;;;;;;7.12;100.00;103933.69;5214169;28;20017;-73
2023/12/16 05:07:57;;;;;;;24.30;4.63;;;;;;;7.06;100.00;103933.97;5212385;28;20108;-72
2023/12/16 05:10:28;;;;;;;19.13;4.35;;;;;;;7.05;100.00;103937.59;5213998;28;20017;-72
2023/12/16 05:12:59;;;;;;;25.08;4.22;;;;;;;7.07;100.00;103930.38;5210865;28;20025;-72
2023/12/16 05:15:29;;;;;;;20.95;4.70;;;;;;;7.08;100.00;103931.22;5204676;28;20075;-72
2023/12/16 05:18:00;;;;;;;27.00;4.85;;;;;;;7.04;100.00;103940.34;5211390;28;20025;-72
2023/12/16 05:20:30;;;;;;;20.98;4.43;;;;;;;7.03;100.00;103935.91;5206577;28;20233;-72
2023/12/16 05:23:02;;;;;;;24.33;4.38;;;;;;;7.02;100.00;103924.38;5210684;28;20021;-72
2023/12/16 05:25:33;;;;;;;17.58;3.97;;;;;;;6.96;100.00;103940.66;5210499;28;20477;-72
2023/12/16 05:28:03;;;;;;;20.05;4.25;;;;;;;6.90;100.00;103939.13;5206009;28;20025;-72
2023/12/16 05:30:34;;;;;;;20.42;4.72;;;;;;;6.90;100.00;103947.13;5206832;28;20028;-72
2023/12/16 05:33:05;;;;;;;12.75;4.03;;;;;;;6.85;100.00;103937.59;5208048;28;20039;-72
2023/12/16 05:35:35;;;;;;;27.35;6.10;;;;;;;6.79;100.00;103928.06;5214131;28;20036;-72
2023/12/16 05:38:06;;;;;;;30.70;4.85;;;;;;;6.76;100.00;103936.19;5211486;28;20017;-72
2023/12/16 05:40:37;;;;;;;21.10;4.93;;;;;;;6.73;100.00;103934.53;5208251;28;20029;-72
2023/12/16 05:43:08;;;;;;;23.85;5.18;;;;;;;6.73;100.00;103937.19;5210562;28;20060;-72
2023/12/16 05:45:38;;;;;;;23.17;5.45;;;;;;;6.75;100.00;103932.66;5214076;28;20495;-73
2023/12/16 05:48:10;;;;;;;21.73;4.47;;;;;;;6.71;100.00;103928.38;5204499;28;20041;-72
2023/12/16 05:50:41;;;;;;;16.05;4.07;;;;;;;6.72;100.00;103929.25;5206631;28;20037;-72
2023/12/16 05:53:11;;;;;;;18.05;4.18;;;;;;;6.71;100.00;103927.50;5211186;28;20037;-72
2023/12/16 05:55:45;;;;;;;16.48;4.03;;;;;;;6.70;100.00;103933.78;5203484;28;20108;-73
2023/12/16 05:58:16;;;;;;;11.50;3.72;;;;;;;6.70;100.00;103933.78;5210568;28;20033;-73
2023/12/16 06:00:46;;;;;;;20.13;3.78;;;;;;;6.72;100.00;103932.78;5216261;28;20025;-72
2023/12/16 06:03:17;;;;;;;13.77;3.63;;;;;;;6.69;100.00;103930.25;5210001;28;20035;-72
2023/12/16 06:05:47;;;;;;;21.67;4.00;;;;;;;6.66;100.00;103925.03;5197769;28;20029;-72
2023/12/16 06:08:18;;;;;;;22.50;3.83;;;;;;;6.62;100.00;103915.44;5194811;28;20029;-72
2023/12/16 06:10:48;;;;;;;14.68;3.85;;;;;;;6.65;100.00;103919.78;5201721;28;20392;-73
2023/12/16 06:13:19;;;;;;;19.48;4.43;;;;;;;6.61;100.00;103926.16;5199934;28;20029;-73
2023/12/16 06:15:49;;;;;;;24.00;4.53;;;;;;;6.54;100.00;103927.38;5204477;28;20070;-72
2023/12/16 06:18:19;;;;;;;16.77;3.83;;;;;;;6.53;100.00;103930.97;5206282;28;20017;-72
2023/12/16 06:20:50;;;;;;;21.20;4.07;;;;;;;6.52;100.00;103931.88;5202790;28;20032;-72
2023/12/16 06:23:20;;;;;;;17.20;3.33;;;;;;;6.48;100.00;103941.84;5202792;28;20034;-71
2023/12/16 06:25:51;;;;;;;22.08;3.55;;;;;;;6.45;100.00;103941.97;5200149;28;20022;-71
2023/12/16 06:28:21;;;;;;;19.60;4.38;;;;;;;6.46;100.00;103954.34;5199704;28;20021;-71
2023/12/16 06:30:52;;;;;;;19.20;3.75;;;;;;;6.45;100.00;103949.97;5198831;28;20025;-71
2023/12/16 06:33:22;;;;;;;14.57;3.03;;;;;;;6.39;100.00;103951.09;5201394;28;20025;-71
2023/12/16 06:35:54;;;;;;;19.45;3.65;;;;;;;6.33;100.00;103948.69;5204754;28;20210;-71
2023/12/16 06:38:24;;;;;;;17.40;3.38;;;;;;;6.26;100.00;103952.50;5208625;28;20030;-71
2023/12/16 06:40:55;;;;;;;19.70;3.80;;;;;;;6.20;100.00;103953.63;5202474;28;20024;-71
2023/12/16 06:43:26;;;;;;;17.25;3.60;;;;;;;6.16;100.00;103946.69;5205092;28;20022;-72
2023/12/16 06:45:56;;;;;;;17.73;4.20;;;;;;;6.09;100.00;103939.88;5199215;28;20036;-73
2023/12/16 06:48:27;;;;;;;14.85;4.03;;;;;;;6.03;100.00;103934.78;5205121;28;20484;-72
2023/12/16 06:50:59;;;;;;;18.55;3.33;;;;;;;6.07;100.00;103940.84;5203860;28;20080;-72
2023/12/16 06:53:30;;;;;;;18.70;3.25;;;;;;;6.09;100.00;103944.34;5217122;28;20780;-73
2023/12/16 06:56:01;;;;;;;16.92;3.65;;;;;;;6.06;100.00;103942.66;5202067;28;20033;-72
2023/12/16 06:58:32;;;;;;;21.95;3.70;;;;;;;6.07;100.00;103952.38;5203665;28;20021;-73
2023/12/16 07:01:02;;;;;;;16.92;3.38;;;;;;;6.07;100.00;103957.72;5201544;28;20030;-72
2023/12/16 07:03:35;;;;;;;32.03;4.32;;;;;;;6.07;100.00;103954.19;5204514;28;20480;-72
2023/12/16 07:06:06;;;;;;;16.88;3.50;;;;;;;6.06;100.00;103953.31;5201323;28;20025;-72
2023/12/16 07:08:37;;;;;;;17.67;2.90;;;;;;;6.08;100.00;103970.13;5202321;28;20436;-72
2023/12/16 07:11:07;;;;;;;16.33;4.00;;;;;;;6.13;100.00;103961.94;5201076;28;20022;-72
2023/12/16 07:13:38;;;;;;;16.60;4.25;;;;;;;6.13;100.00;103972.63;5197832;28;20029;-72
2023/12/16 07:16:09;;;;;;;12.43;4.10;;;;;;;6.10;100.00;103970.94;5199570;28;20055;-72
2023/12/16 07:18:40;;;;;;;19.58;4.15;;;;;;;6.09;100.00;103971.84;5205128;28;20017;-72
2023/12/16 07:21:11;;;;;;;18.42;4.45;;;;;;;6.12;100.00;103970.84;5206053;28;20372;-72
2023/12/16 07:23:41;;;;;;;16.33;4.28;;;;;;;6.14;100.00;103969.88;5204002;28;20033;-72
2023/12/16 07:26:13;;;;;;;18.60;4.53;;;;;;;6.25;100.00;103973.91;5204469;28;20041;-72
2023/12/16 07:28:44;;;;;;;18.48;4.20;;;;;;;6.25;100.00;103977.44;5203056;28;20026;-73
2023/12/16 07:31:15;;;;;;;20.58;4.97;;;;;;;6.41;100.00;103977.69;5203074;28;20057;-72
2023/12/16 07:33:45;;;;;;;13.48;3.97;;;;;;;6.27;100.00;103975.56;5207392;28;20054;-72
2023/12/16 07:36:16;;;;;;;18.45;3.72;;;;;;;6.30;100.00;103975.47;5201610;28;20122;-72
2023/12/16 07:38:46;;;;;;;16.15;3.35;;;;;;;6.35;100.00;103972.59;5202462;28;20025;-73
2023/12/16 07:41:17;;;;;;;17.88;3.53;;;;;;;6.41;100.00;103983.88;5201175;28;20022;-73
2023/12/16 07:43:48;;;;;;;22.27;5.20;;;;;;;6.53;100.00;103973.66;5202677;28;20029;-72
2023/12/16 07:46:18;;;;;;;27.25;5.93;;;;;;;6.67;100.00;103985.47;5197707;28;20037;-72
2023/12/16 07:48:49;;;;;;;30.02;7.25;;;;;;;6.79;100.00;103981.44;5208573;28;20538;-73
2023/12/16 07:51:19;;;;;;;19.08;7.05;;;;;;;6.87;100.00;103981.94;5205819;28;20049;-73
2023/12/16 07:53:50;;;;;;;15.40;4.50;;;;;;;6.99;100.00;103975.25;5204387;28;20087;-72
2023/12/16 07:56:22;;;;;;;21.65;4.40;;;;;;;7.12;100.00;103983.56;5206810;28;20027;-72
2023/12/16 07:58:53;;;;;;;22.27;4.30;;;;;;;7.24;100.00;103981.22;5204431;28;20461;-73
2023/12/16 08:01:23;;;;;;;21.90;4.18;;;;;;;7.30;100.00;103982.75;5203233;28;20076;-72
2023/12/16 08:03:54;;;;;;;28.38;3.55;;;;;;;7.35;100.00;103979.88;5203092;28;20032;-72
2023/12/16 08:06:24;;;;;;;21.83;3.95;;;;;;;7.47;100.00;103977.50;5199962;28;20025;-73
2023/12/16 08:08:55;;;;;;;21.35;3.60;;;;;;;7.59;100.00;103988.59;5195352;28;20095;-73
2023/12/16 08:11:25;;;;;;;24.88;3.95;;;;;;;7.71;100.00;103991.56;5202356;28;20500;-73
2023/12/16 08:13:56;;;;;;;22.40;3.38;;;;;;;7.77;100.00;103988.59;5205604;28;20116;-73
2023/12/16 08:16:26;;;;;;;23.25;3.63;;;;;;;7.92;100.00;103999.50;5201771;28;20025;-73
2023/12/16 08:18:57;;;;;;;21.63;3.67;;;;;;;8.00;100.00;104000.03;5204359;28;20056;-73
2023/12/16 08:21:27;;;;;;;15.73;3.22;;;;;;;8.12;100.00;104004.78;5207104;28;20021;-73
2023/12/16 08:23:58;;;;;;;25.52;3.25;;;;;;;8.19;100.00;104003.56;5204269;28;20521;-73
2023/12/16 08:26:28;;;;;;;22.52;3.55;;;;;;;8.25;100.00;104011.28;5204821;28;20056;-72
2023/12/16 08:28:59;;;;;;;15.00;3.85;;;;;;;8.32;100.00;104009.16;5203710;28;20021;-72
2023/12/16 08:31:29;;;;;;;18.77;3.13;;;;;;;8.43;100.00;104009.53;5204810;28;20036;-73
2023/12/16 08:34:00;;;;;;;21.08;3.25;;;;;;;8.51;100.00;104019.88;5206210;28;20440;-73
2023/12/16 08:36:30;;;;;;;20.15;4.68;;;;;;;8.61;100.00;104028.31;5206430;28;20436;-73
2023/12/16 08:39:01;;;;;;;19.83;3.80;;;;;;;8.55;100.00;104025.00;5206145;28;20021;-73
2023/12/16 08:41:31;;;;;;;20.52;3.88;;;;;;;8.57;100.00;104024.91;5202700;28;20024;-73
2023/12/16 08:44:03;;;;;;;17.73;4.80;;;;;;;8.75;100.00;104029.38;5206135;28;20075;-73
2023/12/16 08:46:39;;;;;;;18.42;3.67;;;;;;;9.01;100.00;104028.03;5201888;28;20037;-73
2023/12/16 08:49:10;;;;;;;24.90;3.70;;;;;;;9.07;100.00;104027.72;5200187;28;20493;-73
2023/12/16 08:51:40;;;;;;;14.35;3.20;;;;;;;9.12;100.00;104029.31;5206404;28;20063;-73
2023/12/16 08:54:11;;;;;;;18.80;4.15;;;;;;;9.26;100.00;104024.97;5200351;28;20034;-73
2023/12/16 08:56:43;;;;;;;20.52;3.72;;;;;;;9.39;100.00;104033.22;5204555;28;20040;-73
2023/12/16 08:59:14;;;;;;;22.00;5.38;;;;;;;9.42;100.00;104040.22;5200391;28;20025;-73
2023/12/16 09:01:44;;;;;;;20.13;4.82;;;;;;;9.50;100.00;104046.94;5202820;28;20765;-74
2023/12/16 09:04:15;;;;;;;29.10;5.78;;;;;;;9.59;100.00;104040.22;5204116;28;20099;-73
2023/12/16 09:06:45;;;;;;;19.15;4.72;;;;;;;9.54;100.00;104044.97;5217109;28;20060;-73
2023/12/16 09:09:16;;;;;;;17.63;3.80;;;;;;;9.24;100.00;104039.41;5202377;28;20032;-74
2023/12/16 09:11:46;;;;;;;20.25;4.20;;;;;;;9.30;100.00;104042.63;5206225;28;20080;-73
2023/12/16 09:14:17;;;;;;;22.35;4.32;;;;;;;9.30;100.00;104047.09;5203497;28;20030;-73
2023/12/16 09:16:48;;;;;;;20.13;4.05;;;;;;;9.33;100.00;104041.56;5203254;28;20029;-74
2023/12/16 09:19:18;;;;;;;16.45;3.65;;;;;;;9.31;100.00;104041.66;5201426;28;20029;-74
2023/12/16 09:21:49;;;;;;;19.67;3.78;;;;;;;9.32;100.00;104037.16;5202696;28;20143;-73
2023/12/16 09:24:20;;;;;;;17.13;4.15;;;;;;;9.35;100.00;104047.72;5202372;28;20057;-73
2023/12/16 09:26:51;;;;;;;24.45;5.20;;;;;;;9.43;100.00;104052.66;5205667;28;20068;-74
2023/12/16 09:29:21;;;;;;;22.52;3.83;;;;;;;9.50;100.00;104046.94;5203479;28;20017;-73
2023/12/16 09:31:52;;;;;;;23.83;4.50;;;;;;;9.51;100.00;104053.16;5205227;28;20079;-74
2023/12/16 09:34:22;;;;;;;20.98;4.32;;;;;;;9.53;100.00;104054.78;5197935;28;20026;-74
2023/12/16 09:36:53;;;;;;;18.88;4.53;;;;;;;9.62;100.00;104049.88;5201935;28;20060;-74
2023/12/16 09:39:24;;;;;;;27.55;4.20;;;;;;;9.58;100.00;104047.34;5207542;28;20094;-74
2023/12/16 09:41:56;;;;;;;23.73;5.10;;;;;;;9.64;100.00;104053.34;5207551;28;20044;-74
2023/12/16 09:44:27;;;;;;;20.25;4.00;;;;;;;9.67;100.00;104063.91;5205356;28;20028;-74
2023/12/16 09:46:59;;;;;;;19.00;4.03;;;;;;;9.66;100.00;104052.31;5204454;28;20055;-74
2023/12/16 09:49:30;;;;;;;21.55;3.78;;;;;;;9.79;100.00;104063.28;5207046;28;20053;-74
2023/12/16 09:52:01;;;;;;;26.75;4.30;;;;;;;9.80;100.00;104055.13;5207055;28;20468;-74
2023/12/16 09:54:32;;;;;;;21.85;4.18;;;;;;;9.81;100.00;104064.03;5209520;28;20033;-74
2023/12/16 09:57:03;;;;;;;22.00;4.75;;;;;;;9.81;100.00;104048.81;5209408;28;20027;-74
2023/12/16 09:59:36;;;;;;;23.35;4.07;;;;;;;9.89;100.00;104051.09;5205752;28;20100;-74
2023/12/16 10:02:19;;;;;;;21.55;5.25;;;;;;;9.93;100.00;104062.50;5209126;28;20031;-74
2023/12/16 10:04:51;;;;;;;22.05;4.07;;;;;;;9.98;100.00;104061.28;5209015;28;20083;-74
2023/12/16 10:07:22;;;;;;;21.33;4.60;;;;;;;9.96;100.00;104057.84;5205438;28;20025;-74
2023/12/16 10:09:53;;;;;;;21.77;4.25;;;;;;;10.08;100.00;104057.16;5207752;28;20032;-74
2023/12/16 10:12:31;;;;;;;15.60;4.07;;;;;;;10.07;100.00;104051.88;5210316;28;20029;-75
2023/12/16 10:15:02;;;;;;;26.77;4.72;;;;;;;10.17;100.00;104050.41;5206285;28;20432;-75
2023/12/16 10:17:32;;;;;;;26.13;4.18;;;;;;;10.19;100.00;104048.53;5209249;28;20022;-74
2023/12/16 10:20:03;;;;;;;19.63;4.40;;;;;;;10.15;100.00;104052.34;5206595;28;20028;-74
2023/12/16 10:22:34;;;;;;;15.80;4.35;;;;;;;10.18;100.00;104036.03;5207953;28;20029;-75
2023/12/16 10:25:06;;;;;;;22.35;4.00;;;;;;;10.23;100.00;104054.56;5206537;28;20029;-74
2023/12/16 10:27:36;;;;;;;21.73;4.25;;;;;;;10.29;100.00;104043.53;5205407;28;20631;-74
2023/12/16 10:30:07;;;;;;;13.65;3.40;;;;;;;10.23;100.00;104050.06;5206580;28;20361;-74
2023/12/16 10:32:39;;;;;;;19.40;4.55;;;;;;;10.24;100.00;104035.75;5205773;28;20480;-74
2023/12/16 10:35:10;;;;;;;21.17;3.97;;;;;;;10.25;100.00;104026.75;5203172;28;20025;-74
2023/12/16 10:37:48;;;;;;;25.15;5.22;;;;;;;10.40;100.00;104030.38;5208367;28;20523;-74
2023/12/16 10:40:18;;;;;;;27.13;4.45;;;;;;;10.44;100.00;104037.31;5208008;28;20029;-75
2023/12/16 10:42:49;;;;;;;20.23;3.92;;;;;;;10.42;100.00;104028.47;5208423;28;20025;-74
2023/12/16 10:45:20;;;;;;;17.50;3.58;;;;;;;10.42;100.00;104028.47;5207883;28;20020;-74
2023/12/16 10:47:55;;;;;;;19.77;3.97;;;;;;;10.40;100.00;104022.34;5206529;28;20029;-74
2023/12/16 10:50:26;;;;;;;20.17;4.72;;;;;;;10.49;100.00;104018.22;5202647;28;20029;-74
2023/12/16 10:53:02;;;;;;;19.30;4.30;;;;;;;10.39;100.00;104023.25;5207917;28;20395;-74
2023/12/16 10:55:42;;;;;;;23.90;4.18;;;;;;;10.46;100.00;104021.97;5208794;28;20056;-75
2023/12/16 10:58:30;;;;;;;24.13;4.53;;;;;;;10.40;100.00;104025.00;5202297;28;20481;-75
2023/12/16 11:01:13;;;;;;;21.08;4.60;;;;;;;10.41;100.00;104023.19;5205588;28;20029;-75
2023/12/16 11:03:59;;;;;;;28.15;6.28;;;;;;;10.51;100.00;104019.88;5209788;28;20033;-75
2023/12/16 11:06:39;;;;;;;18.10;4.95;;;;;;;10.57;100.00;104021.34;5205636;28;20453;-74
2023/12/16 11:09:11;;;;;;;18.55;4.47;;;;;;;10.57;100.00;104019.53;5204881;28;20428;-74
2023/12/16 11:11:42;;;;;;;23.05;4.15;;;;;;;10.54;100.00;104014.34;5209004;28;20195;-75
2023/12/16 11:14:14;;;;;;;21.65;4.60;;;;;;;10.54;100.00;104017.03;5207123;28;20037;-74
2023/12/16 11:17:09;;;;;;;27.02;5.13;;;;;;;10.65;100.00;104012.88;5208332;28;20358;-75
2023/12/16 11:19:44;;;;;;;23.58;4.03;;;;;;;10.67;100.00;104011.78;5204870;28;20507;-74
2023/12/16 11:22:15;;;;;;;;;;;;;;;10.62;100.00;104001.31;5206724;28;20053;-73
2023/12/16 11:24:46;;;;;;;18.60;4.13;;;;;;;10.66;100.00;103991.28;5209578;28;19959;-74
2023/12/16 11:27:16;;;;;;;15.68;4.03;;;;;;;10.72;100.00;103992.72;5204939;28;20504;-74
2023/12/16 11:29:47;;;;;;;18.10;5.47;;;;;;;10.74;100.00;103996.19;5207438;28;20029;-74
2023/12/16 11:32:18;;;;;;;25.90;4.82;;;;;;;10.78;100.00;103993.22;5207146;28;20108;-74
2023/12/16 11:34:49;;;;;;;26.40;5.93;;;;;;;10.96;100.00;103996.66;5207102;28;20213;-75